»·PEaware :: DAL56 KRNO-KSLC

DAL56 :: KRNO-KSLC

FLIGHT INFORMATION

Flight Status: Arrived
Operator:
Delta Air Lines
More flights by this operator :: More flights under this callsign
Pilot: John C. (18682)
Aircraft: AIRBUS A320
(A320)
More flights by this aircraft type
Origin: KRNO Reno/Tahoe Intl
United States
Destination: KSLC Salt Lake City Intl
United States
More flights between these airports :: More routes between these airports
Route: +ZEFFR6 BLKJK LLC BAM J154 BVL WAATS5
File this flight plan on PilotEdge
Remarks:
Altitude:
(Current/Filed)
37,000ft
Speed:
(Current/Filed)
432kts
Departed: 06-May-18 11:45 AM
Arrived: 06-May-18 12:51 PM
Distance/Time
Traveled:
365nm/1:06
Distance/Time
To Go:
Arrived

Flight Plot

Page will automatically refresh every two minutes.

Flight plan parsing failed; only flown route is shown


Map Options




Map Legend


Flown Route
Filed Route
Departure Airport
Arrival Airport
Navaid (VOR, NDB)
Fix

Horizontal Profiles

Position Reports

Time Latitude Longitude Heading Altitude Ground
Speed
06-May-18 11:18 39.505217 -119.773165 184 4415ft 0kts
06-May-18 11:19 39.505217 -119.773165 184 4415ft 0kts
06-May-18 11:20 39.505217 -119.773165 184 4415ft 0kts
06-May-18 11:21 39.505217 -119.773165 184 4415ft 0kts
06-May-18 11:22 39.505217 -119.773165 184 4415ft 0kts
06-May-18 11:23 39.505217 -119.773165 184 4415ft 0kts
06-May-18 11:24 39.505217 -119.773165 184 4415ft 0kts
06-May-18 11:25 39.505217 -119.773165 184 4415ft 0kts
06-May-18 11:26 39.505217 -119.773165 184 4415ft 0kts
06-May-18 11:27 39.505217 -119.773165 184 4415ft 0kts
06-May-18 11:28 39.505217 -119.773165 184 4415ft 0kts
06-May-18 11:29 39.505217 -119.773165 184 4415ft 0kts
06-May-18 11:30 39.505217 -119.773165 184 4415ft 0kts
06-May-18 11:31 39.505217 -119.773165 184 4415ft 0kts
06-May-18 11:32 39.505217 -119.773165 184 4415ft 0kts
06-May-18 11:33 39.505217 -119.773165 184 4415ft 0kts
06-May-18 11:34 39.505217 -119.773165 184 4415ft 0kts
06-May-18 11:35 39.505217 -119.773165 184 4415ft 0kts
06-May-18 11:36 39.505249 -119.773162 184 4415ft 2kts
06-May-18 11:37 39.505768 -119.773122 158 4415ft 2kts
06-May-18 11:38 39.505921 -119.773461 89 4416ft 0kts
06-May-18 11:39 39.505921 -119.773460 89 4416ft 0kts
06-May-18 11:40 39.505913 -119.772305 89 4414ft 0kts
06-May-18 11:41 39.508433 -119.771483 0 4415ft 17kts
06-May-18 11:42 39.513472 -119.771412 18 4422ft 12kts
06-May-18 11:43 39.513747 -119.770462 93 4420ft 0kts
06-May-18 11:44 39.513739 -119.770253 91 4420ft 7kts
06-May-18 11:45 39.500001 -119.769235 179 4417ft 170kts
06-May-18 11:46 39.447274 -119.769571 178 7247ft 215kts
06-May-18 11:47 39.380041 -119.769729 178 9279ft 293kts
06-May-18 11:48 39.304798 -119.735966 123 12401ft 319kts
06-May-18 11:49 39.288378 -119.627364 60 15519ft 357kts
06-May-18 11:50 39.350298 -119.515291 50 17524ft 399kts
06-May-18 11:51 39.431892 -119.415114 41 19470ft 411kts
06-May-18 11:52 39.517211 -119.312670 41 21564ft 430kts
06-May-18 11:53 39.606192 -119.206313 41 23507ft 445kts
06-May-18 11:54 39.698077 -119.096011 40 25279ft 458kts
06-May-18 11:55 39.792499 -118.982217 40 26945ft 470kts
06-May-18 11:56 39.889283 -118.865110 40 28456ft 482kts
06-May-18 11:57 39.987883 -118.745318 40 29834ft 492kts
06-May-18 11:58 40.089112 -118.621791 40 31043ft 503kts
06-May-18 11:58 40.149031 -118.492091 71 31924ft 515kts
06-May-18 11:59 40.196379 -118.319454 71 33277ft 515kts
06-May-18 12:00 40.244508 -118.143342 70 34456ft 515kts
06-May-18 12:01 40.292202 -117.967743 71 35718ft 511kts
06-May-18 12:02 40.339314 -117.792951 70 36793ft 510kts
06-May-18 12:03 40.386143 -117.617956 71 37179ft 509kts
06-May-18 12:04 40.432755 -117.442548 70 37180ft 510kts
06-May-18 12:05 40.479039 -117.267150 71 37175ft 509kts
06-May-18 12:06 40.524909 -117.092084 72 37158ft 508kts
06-May-18 12:07 40.568385 -116.915871 83 37188ft 504kts
06-May-18 12:08 40.580881 -116.733812 89 37206ft 499kts
06-May-18 12:09 40.591956 -116.552271 88 37179ft 498kts
06-May-18 12:10 40.602702 -116.371438 89 37168ft 497kts
06-May-18 12:11 40.613136 -116.191103 90 37188ft 496kts
06-May-18 12:12 40.623296 -116.010521 90 37194ft 496kts
06-May-18 12:13 40.633208 -115.829300 89 37204ft 497kts
06-May-18 12:14 40.642816 -115.648435 89 37205ft 498kts
06-May-18 12:15 40.652204 -115.466311 89 37215ft 499kts
06-May-18 12:16 40.661283 -115.284634 90 37212ft 499kts
06-May-18 12:17 40.670068 -115.103084 90 37201ft 498kts
06-May-18 12:18 40.678569 -114.921432 89 37195ft 497kts
06-May-18 12:19 40.686751 -114.740035 89 36749ft 496kts
06-May-18 12:20 40.694625 -114.559094 89 35799ft 496kts
06-May-18 12:21 40.702226 -114.378342 89 34659ft 488kts
06-May-18 12:22 40.709134 -114.207915 90 32862ft 476kts
06-May-18 12:23 40.715833 -114.035910 90 30981ft 464kts
06-May-18 12:24 40.722097 -113.868835 91 29116ft 451kts
06-May-18 12:25 40.726126 -113.706705 94 27259ft 437kts
06-May-18 12:27 40.725951 -113.549419 94 25418ft 423kts
06-May-18 12:28 40.725579 -113.397015 93 23606ft 410kts
06-May-18 12:29 40.725056 -113.255913 94 21899ft 396kts
06-May-18 12:30 40.724356 -113.114167 94 20170ft 381kts
06-May-18 12:31 40.723513 -112.977419 94 18476ft 366kts
06-May-18 12:32 40.722555 -112.845824 94 16926ft 350kts
06-May-18 12:33 40.721464 -112.718628 94 15849ft 343kts
06-May-18 12:34 40.720271 -112.594108 94 14815ft 336kts
06-May-18 12:35 40.718106 -112.472512 95 13808ft 329kts
06-May-18 12:36 40.714369 -112.353286 95 12823ft 322kts
06-May-18 12:37 40.711877 -112.237287 90 12062ft 314kts
06-May-18 12:38 40.731078 -112.127715 40 12067ft 326kts
06-May-18 12:39 40.814179 -112.098390 352 12066ft 312kts
06-May-18 12:40 40.898282 -112.109089 353 11716ft 292kts
06-May-18 12:41 40.977274 -112.118662 353 10761ft 283kts
06-May-18 12:42 41.055135 -112.127979 353 9576ft 280kts
06-May-18 12:43 41.108990 -112.080533 93 9100ft 254kts
06-May-18 12:44 41.067342 -112.031337 170 9077ft 191kts
06-May-18 12:45 41.014402 -112.023299 176 9075ft 192kts
06-May-18 12:46 40.960432 -112.017030 176 7367ft 202kts
06-May-18 12:47 40.911983 -112.011361 176 6304ft 142kts
06-May-18 12:48 40.877703 -112.007409 177 5626ft 125kts
06-May-18 12:49 40.843319 -112.003387 175 4966ft 125kts
06-May-18 12:50 40.809555 -111.999509 175 4326ft 124kts
06-May-18 12:51 40.792266 -111.997234 159 4236ft 20kts
06-May-18 12:52 40.790958 -111.994205 85 4236ft 13kts
06-May-18 12:53 40.791437 -111.986993 90 4236ft 15kts
06-May-18 12:54 40.789861 -111.984227 124 4236ft 11kts
06-May-18 12:55 40.787670 -111.983678 247 4236ft 4kts
06-May-18 12:56 40.787616 -111.983877 251 4236ft 0kts
06-May-18 12:57 40.787616 -111.983877 251 4236ft 0kts
06-May-18 12:58 40.787616 -111.983877 251 4236ft 0kts

Navigation Log

Ident Type
Flight plan parsing failed, navigation log unavailable